createdAt,value
2017-10-19T00:01:44.130Z,139.55
2017-10-19T00:04:11.559Z,154.07
2017-10-19T00:06:38.984Z,139.67
2017-10-19T00:09:06.408Z,93.63
2017-10-19T00:11:33.849Z,246.27
2017-10-19T00:14:01.266Z,275.77
2017-10-19T00:16:29.450Z,181.60
2017-10-19T00:18:57.643Z,371.13
2017-10-19T00:21:25.075Z,170.63
2017-10-19T00:23:53.263Z,96.53
2017-10-19T00:26:21.440Z,96.10
2017-10-19T00:28:48.873Z,201.03
2017-10-19T00:31:17.075Z,157.40
2017-10-19T00:33:44.495Z,189.60
2017-10-19T00:36:11.915Z,164.37
2017-10-19T00:38:39.339Z,123.85
2017-10-19T00:41:06.762Z,102.30
2017-10-19T00:43:34.948Z,122.77
2017-10-19T00:46:02.379Z,141.27
2017-10-19T00:48:29.803Z,112.33
2017-10-19T00:50:57.215Z,197.27
2017-10-19T00:53:25.399Z,116.40
2017-10-19T00:55:53.583Z,122.30
2017-10-19T00:58:21.003Z,90.73
2017-10-19T01:00:48.438Z,82.77
2017-10-19T01:03:15.871Z,98.00
2017-10-19T01:05:43.304Z,152.03
2017-10-19T01:08:10.727Z,95.40
2017-10-19T01:10:38.156Z,146.93
2017-10-19T01:13:05.558Z,85.63
2017-10-19T01:15:33.743Z,88.20
2017-10-19T01:18:01.163Z,199.93
2017-10-19T01:20:28.583Z,93.57
2017-10-19T01:22:56.019Z,101.03
2017-10-19T01:25:23.436Z,93.00
2017-10-19T01:27:50.958Z,93.73
2017-10-19T01:30:18.406Z,85.97
2017-10-19T01:32:45.831Z,86.47
2017-10-19T01:35:14.944Z,90.70
2017-10-19T01:37:42.351Z,83.00
2017-10-19T01:40:09.768Z,87.93
2017-10-19T01:42:37.194Z,87.70
2017-10-19T01:45:05.390Z,88.80
2017-10-19T01:47:32.807Z,81.93
2017-10-19T01:50:01.003Z,75.10
2017-10-19T01:52:28.428Z,78.07
2017-10-19T01:54:55.855Z,81.43
2017-10-19T01:57:23.271Z,73.53
2017-10-19T01:59:50.691Z,73.60
2017-10-19T02:02:18.113Z,74.23
2017-10-19T02:04:45.532Z,70.17
2017-10-19T02:07:12.954Z,78.43
2017-10-19T02:09:41.199Z,86.53
2017-10-19T02:12:08.631Z,92.83
2017-10-19T02:14:36.047Z,91.57
2017-10-19T02:17:04.236Z,145.30
2017-10-19T02:19:32.452Z,87.47
2017-10-19T02:21:59.873Z,88.60
2017-10-19T02:24:28.056Z,93.10
2017-10-19T02:26:55.488Z,95.67
2017-10-19T02:29:22.903Z,90.03
2017-10-19T02:31:50.338Z,84.17
2017-10-19T02:34:17.753Z,75.73
2017-10-19T02:36:46.099Z,71.53
2017-10-19T02:39:13.523Z,76.37
2017-10-19T02:41:40.943Z,69.40
2017-10-19T02:44:08.371Z,76.33
2017-10-19T02:46:35.779Z,70.77
2017-10-19T02:49:03.978Z,69.77
2017-10-19T02:51:31.392Z,63.50
2017-10-19T02:53:59.578Z,64.60
2017-10-19T02:56:27.762Z,64.10
2017-10-19T02:58:55.171Z,58.23
2017-10-19T03:01:22.594Z,61.20
2017-10-19T03:03:50.013Z,61.30
2017-10-19T03:06:18.200Z,60.60
2017-10-19T03:08:47.182Z,57.20
2017-10-19T03:11:15.376Z,51.80
2017-10-19T03:13:42.798Z,54.97
2017-10-19T03:16:10.990Z,52.93
2017-10-19T03:18:39.183Z,56.37
2017-10-19T03:21:06.618Z,52.70
2017-10-19T03:23:34.858Z,55.50
2017-10-19T03:26:02.287Z,55.70
2017-10-19T03:28:29.711Z,60.55
2017-10-19T03:30:57.149Z,54.70
2017-10-19T03:33:25.331Z,51.87
2017-10-19T03:35:53.515Z,53.60
2017-10-19T03:38:20.956Z,53.60
2017-10-19T03:40:48.654Z,54.40
2017-10-19T03:43:16.971Z,48.07
2017-10-19T03:45:46.834Z,54.03
2017-10-19T03:48:14.251Z,55.43
2017-10-19T03:50:43.171Z,58.23
2017-10-19T03:53:10.649Z,55.23
2017-10-19T03:55:38.063Z,56.57
2017-10-19T03:58:06.245Z,57.87
2017-10-19T04:00:35.351Z,54.80
2017-10-19T04:03:02.771Z,60.00
2017-10-19T04:05:31.691Z,54.57
2017-10-19T04:07:59.879Z,59.97
2017-10-19T04:10:27.295Z,69.57
2017-10-19T04:12:54.886Z,61.83
2017-10-19T04:15:22.315Z,62.30
2017-10-19T04:17:49.746Z,56.93
2017-10-19T04:20:18.374Z,53.35
2017-10-19T04:22:47.496Z,58.80
2017-10-19T04:25:14.903Z,54.30
2017-10-19T04:27:42.323Z,55.50
2017-10-19T04:30:09.748Z,59.43
2017-10-19T04:32:37.171Z,70.77
2017-10-19T04:35:04.591Z,62.47
2017-10-19T04:37:32.042Z,59.67
2017-10-19T04:39:59.544Z,54.40
2017-10-19T04:42:26.969Z,60.77
2017-10-19T04:44:54.383Z,62.33
2017-10-19T04:47:21.811Z,65.40
2017-10-19T04:49:49.224Z,58.67
2017-10-19T04:52:16.634Z,57.60
2017-10-19T04:54:44.827Z,55.23
2017-10-19T04:57:12.240Z,61.53
2017-10-19T04:59:39.662Z,59.93
2017-10-19T05:02:07.083Z,56.80
2017-10-19T05:04:35.295Z,70.20
2017-10-19T05:07:02.702Z,61.03
2017-10-19T05:09:30.895Z,70.47
2017-10-19T05:11:58.320Z,56.77
2017-10-19T05:14:26.037Z,58.07
2017-10-19T05:16:53.455Z,61.17
2017-10-19T05:19:21.696Z,54.23
2017-10-19T05:21:49.103Z,59.20
2017-10-19T05:24:17.286Z,55.17
2017-10-19T05:26:44.699Z,60.70
2017-10-19T05:29:12.140Z,68.37
2017-10-19T05:31:39.554Z,63.30
2017-10-19T05:34:07.019Z,68.30
2017-10-19T05:36:34.441Z,67.33
2017-10-19T05:39:02.622Z,59.07
2017-10-19T05:41:30.799Z,73.97
2017-10-19T05:43:58.230Z,61.67
2017-10-19T05:46:25.660Z,65.33
2017-10-19T05:48:53.083Z,67.33
2017-10-19T05:51:20.503Z,80.20
2017-10-19T05:53:49.611Z,66.10
2017-10-19T05:56:17.795Z,59.23
2017-10-19T05:58:45.210Z,72.63
2017-10-19T06:01:12.628Z,67.17
2017-10-19T06:03:40.050Z,70.97
2017-10-19T06:06:08.235Z,69.70
2017-10-19T06:08:35.667Z,62.83
2017-10-19T06:11:03.190Z,61.90
2017-10-19T06:13:30.592Z,60.17
2017-10-19T06:15:58.027Z,62.77
2017-10-19T06:18:25.765Z,64.30
2017-10-19T06:20:53.190Z,62.70
2017-10-19T06:23:20.607Z,63.73
2017-10-19T06:25:48.037Z,64.17
2017-10-19T06:28:15.444Z,70.10
2017-10-19T06:30:42.927Z,68.50
2017-10-19T06:33:10.334Z,68.17
2017-10-19T06:35:37.758Z,68.10
2017-10-19T06:38:05.170Z,68.37
2017-10-19T06:40:32.595Z,74.60
2017-10-19T06:43:00.027Z,63.07
2017-10-19T06:45:27.511Z,67.93
2017-10-19T06:47:54.930Z,62.87
2017-10-19T06:50:22.383Z,72.23
2017-10-19T06:52:50.846Z,65.03
2017-10-19T06:55:18.266Z,68.07
2017-10-19T06:57:45.675Z,67.63
2017-10-19T07:00:13.091Z,61.53
2017-10-19T07:02:41.272Z,71.07
2017-10-19T07:05:08.687Z,62.27
2017-10-19T07:07:36.112Z,66.27
2017-10-19T07:10:03.539Z,69.30
2017-10-19T07:12:30.974Z,67.43
2017-10-19T07:14:58.375Z,70.30
2017-10-19T07:17:25.819Z,66.77
2017-10-19T07:19:53.248Z,69.50
2017-10-19T07:22:21.463Z,79.63
2017-10-19T07:24:48.872Z,68.77
2017-10-19T07:27:16.277Z,82.17
2017-10-19T07:29:43.690Z,71.73
2017-10-19T07:32:11.884Z,68.73
2017-10-19T07:34:39.324Z,63.67
2017-10-19T07:37:07.516Z,61.37
2017-10-19T07:39:34.936Z,68.30
2017-10-19T07:42:02.371Z,61.93
2017-10-19T07:44:29.791Z,63.20
2017-10-19T07:46:57.217Z,59.83
2017-10-19T07:49:25.392Z,82.67
2017-10-19T07:51:53.587Z,69.13
2017-10-19T07:54:21.024Z,69.23
2017-10-19T07:56:48.442Z,61.30
2017-10-19T07:59:15.858Z,62.43
2017-10-19T08:01:43.288Z,65.83
2017-10-19T08:04:11.470Z,60.87
2017-10-19T08:06:39.658Z,67.63
2017-10-19T08:09:07.088Z,65.40
2017-10-19T08:11:35.286Z,63.27
2017-10-19T08:14:02.725Z,56.30
2017-10-19T08:16:30.129Z,59.93
2017-10-19T08:18:57.547Z,64.93
2017-10-19T08:21:24.981Z,62.07
2017-10-19T08:23:53.181Z,69.40
2017-10-19T08:26:21.547Z,62.60
2017-10-19T08:28:49.730Z,58.83
2017-10-19T08:31:17.160Z,57.50
2017-10-19T08:33:45.359Z,66.20
2017-10-19T08:36:13.540Z,59.07
2017-10-19T08:38:40.959Z,58.40
2017-10-19T08:41:08.383Z,59.25
2017-10-19T08:43:35.803Z,74.13
2017-10-19T08:46:03.214Z,59.20
2017-10-19T08:48:30.634Z,56.90
2017-10-19T08:50:58.075Z,55.10
2017-10-19T08:53:25.507Z,77.47
2017-10-19T08:55:53.696Z,52.57
2017-10-19T08:58:22.803Z,59.90
2017-10-19T09:00:51.075Z,58.33
2017-10-19T09:03:18.495Z,58.87
2017-10-19T09:05:45.911Z,58.47
2017-10-19T09:08:13.342Z,53.70
2017-10-19T09:10:40.818Z,52.70
2017-10-19T09:13:08.254Z,53.23
2017-10-19T09:15:35.677Z,49.37
2017-10-19T09:18:03.086Z,54.87
2017-10-19T09:20:30.499Z,53.67
2017-10-19T09:22:58.698Z,48.57
2017-10-19T09:25:26.666Z,49.43
2017-10-19T09:27:54.090Z,54.23
2017-10-19T09:30:22.443Z,74.30
2017-10-19T09:32:49.858Z,56.67
2017-10-19T09:35:17.308Z,56.57
2017-10-19T09:37:45.521Z,47.23
2017-10-19T09:40:12.948Z,48.17
2017-10-19T09:42:40.377Z,47.13
2017-10-19T09:45:08.573Z,55.33
2017-10-19T09:47:35.974Z,48.17
2017-10-19T09:50:03.408Z,50.80
2017-10-19T09:52:30.841Z,49.93
2017-10-19T09:54:58.268Z,54.43
2017-10-19T09:57:26.450Z,52.13
2017-10-19T09:59:54.640Z,52.30
2017-10-19T10:02:23.741Z,53.00
2017-10-19T10:04:51.168Z,49.57
2017-10-19T10:07:19.362Z,51.97
2017-10-19T10:09:46.813Z,55.93
2017-10-19T10:12:14.210Z,44.83
2017-10-19T10:14:41.640Z,45.83
2017-10-19T10:17:09.052Z,46.17
2017-10-19T10:19:36.466Z,44.93
2017-10-19T10:22:03.880Z,48.97
2017-10-19T10:24:32.083Z,45.43
2017-10-19T10:26:59.489Z,47.77
2017-10-19T10:29:26.924Z,45.90
2017-10-19T10:31:54.337Z,45.10
2017-10-19T10:34:21.923Z,50.37
2017-10-19T10:36:49.375Z,47.30
2017-10-19T10:39:16.802Z,45.70
2017-10-19T10:41:44.979Z,44.87
2017-10-19T10:44:13.173Z,54.10
2017-10-19T10:46:40.659Z,46.07
2017-10-19T10:49:08.090Z,47.17
2017-10-19T10:51:35.502Z,52.77
2017-10-19T10:54:03.688Z,44.23
2017-10-19T10:56:31.892Z,52.13
2017-10-19T10:58:59.304Z,56.93
2017-10-19T11:01:27.527Z,43.53
2017-10-19T11:03:55.442Z,54.87
2017-10-19T11:06:22.968Z,46.10
2017-10-19T11:08:50.370Z,47.30
2017-10-19T11:11:18.597Z,47.23
2017-10-19T11:13:46.002Z,44.43
2017-10-19T11:16:14.248Z,43.73
2017-10-19T11:18:41.640Z,39.17
2017-10-19T11:21:09.065Z,40.90
2017-10-19T11:23:36.483Z,38.10
2017-10-19T11:26:03.907Z,44.17
2017-10-19T11:28:32.083Z,38.70
2017-10-19T11:31:00.010Z,51.77
2017-10-19T11:33:27.438Z,43.33
2017-10-19T11:35:54.866Z,46.37
2017-10-19T11:38:22.354Z,40.53
2017-10-19T11:40:49.775Z,45.40
2017-10-19T11:43:17.204Z,50.87
2017-10-19T11:45:44.626Z,32.87
2017-10-19T11:48:12.673Z,35.63
2017-10-19T11:50:40.086Z,29.93
2017-10-19T11:53:07.597Z,34.67
2017-10-19T11:55:35.027Z,28.43
2017-10-19T11:58:03.958Z,29.17
2017-10-19T12:00:31.379Z,37.37
2017-10-19T12:02:58.800Z,28.30
2017-10-19T12:05:26.207Z,38.50
2017-10-19T12:07:53.626Z,28.23
2017-10-19T12:10:21.802Z,29.97
2017-10-19T12:12:49.979Z,25.83
2017-10-19T12:15:18.150Z,23.97
2017-10-19T12:17:46.433Z,27.70
2017-10-19T12:20:13.828Z,27.23
2017-10-19T12:22:41.386Z,30.33
2017-10-19T12:25:08.788Z,22.60
2017-10-19T12:27:36.986Z,30.23
2017-10-19T12:30:04.406Z,23.63
2017-10-19T12:32:31.843Z,18.50
2017-10-19T12:34:59.370Z,20.30
2017-10-19T12:37:26.808Z,21.10
2017-10-19T12:39:56.444Z,21.07
2017-10-19T12:42:23.864Z,20.57
2017-10-19T12:44:52.064Z,20.23
2017-10-19T12:47:19.546Z,22.00
2017-10-19T12:49:47.709Z,22.03
2017-10-19T12:52:15.173Z,23.07
2017-10-19T12:54:42.719Z,21.40
2017-10-19T12:57:10.123Z,20.33
2017-10-19T12:59:37.637Z,17.87
2017-10-19T13:02:05.100Z,18.30
2017-10-19T13:04:32.512Z,16.90
2017-10-19T13:06:59.927Z,24.73
2017-10-19T13:09:27.359Z,17.57
2017-10-19T13:11:54.784Z,17.53
2017-10-19T13:14:22.958Z,17.50
2017-10-19T13:16:50.390Z,21.33
2017-10-19T13:19:17.887Z,18.33
2017-10-19T13:21:45.984Z,20.40
2017-10-19T13:24:13.444Z,19.23
2017-10-19T13:26:40.985Z,18.50
2017-10-19T13:29:08.411Z,16.50
2017-10-19T13:31:36.594Z,13.77
2017-10-19T13:34:04.023Z,16.93
2017-10-19T13:36:32.247Z,14.60
2017-10-19T13:38:59.971Z,16.10
2017-10-19T13:41:28.187Z,12.53
2017-10-19T13:43:55.612Z,12.53
2017-10-19T13:46:23.027Z,19.43
2017-10-19T13:48:50.551Z,15.00
2017-10-19T13:51:18.018Z,12.60
2017-10-19T13:53:45.723Z,10.50
2017-10-19T13:56:13.130Z,17.93
2017-10-19T13:58:40.580Z,11.97
2017-10-19T14:01:08.044Z,15.63
2017-10-19T14:03:35.471Z,11.57
2017-10-19T14:06:02.893Z,15.33
2017-10-19T14:08:30.304Z,19.73
2017-10-19T14:10:57.759Z,12.97
2017-10-19T14:13:25.162Z,13.60
2017-10-19T14:15:52.587Z,12.83
2017-10-19T14:18:20.032Z,14.13
2017-10-19T14:20:47.451Z,13.30
2017-10-19T14:23:15.656Z,17.90
2017-10-19T14:25:43.071Z,17.13
2017-10-19T14:28:11.296Z,14.63
2017-10-19T14:30:38.735Z,21.63
2017-10-19T14:33:06.142Z,13.97
2017-10-19T14:35:33.567Z,16.73
2017-10-19T14:38:00.985Z,18.70
2017-10-19T14:40:28.415Z,21.43
2017-10-19T14:42:56.654Z,17.57
2017-10-19T14:45:24.099Z,23.63
2017-10-19T14:47:51.498Z,17.50
2017-10-19T14:50:18.912Z,21.07
2017-10-19T14:52:46.382Z,17.40
2017-10-19T14:55:13.803Z,19.87
2017-10-19T14:57:41.975Z,16.40
2017-10-19T15:00:09.422Z,21.43
2017-10-19T15:02:37.593Z,18.30
2017-10-19T15:05:05.775Z,15.37
2017-10-19T15:07:33.587Z,21.63
2017-10-19T15:10:01.015Z,18.23
2017-10-19T15:12:29.391Z,26.80
2017-10-19T15:14:56.842Z,87.40
2017-10-19T15:17:24.276Z,193.50
2017-10-19T15:19:52.439Z,20.30
2017-10-19T15:22:20.630Z,17.23
2017-10-19T15:24:48.829Z,18.93
2017-10-19T15:27:16.431Z,16.83
2017-10-19T15:29:43.858Z,19.53
2017-10-19T15:32:11.308Z,17.50
2017-10-19T15:34:38.710Z,26.97
2017-10-19T15:37:06.219Z,18.80
2017-10-19T15:39:33.683Z,28.33
2017-10-19T15:42:01.088Z,24.57
2017-10-19T15:44:29.893Z,20.50
2017-10-19T15:46:59.017Z,19.90
2017-10-19T15:49:26.427Z,18.90
2017-10-19T15:51:54.607Z,21.00
2017-10-19T15:54:22.787Z,23.43
2017-10-19T15:56:50.212Z,22.20
2017-10-19T15:59:17.629Z,20.40
2017-10-19T16:01:45.332Z,20.07
2017-10-19T16:04:12.758Z,18.10
2017-10-19T16:06:40.167Z,20.67
2017-10-19T16:09:08.350Z,23.60
2017-10-19T16:11:36.533Z,26.07
2017-10-19T16:14:03.946Z,23.00
2017-10-19T16:16:31.409Z,19.37
2017-10-19T16:19:00.559Z,23.10
2017-10-19T16:21:27.976Z,24.13
2017-10-19T16:23:56.167Z,27.10
2017-10-19T16:26:23.596Z,22.97
2017-10-19T16:28:51.820Z,32.20
2017-10-19T16:31:19.239Z,26.30
2017-10-19T16:33:47.463Z,32.03
2017-10-19T16:36:14.895Z,29.30
2017-10-19T16:38:42.317Z,42.57
2017-10-19T16:41:10.501Z,28.67
2017-10-19T16:43:38.727Z,39.30
2017-10-19T16:46:06.152Z,30.17
2017-10-19T16:48:33.576Z,35.73
2017-10-19T16:51:00.990Z,28.73
2017-10-19T16:53:28.411Z,40.60
2017-10-19T16:55:55.843Z,31.83
2017-10-19T16:58:24.068Z,33.80
2017-10-19T17:00:51.511Z,37.43
2017-10-19T17:03:18.927Z,41.07
2017-10-19T17:05:47.121Z,42.20
2017-10-19T17:08:15.377Z,42.70
2017-10-19T17:10:43.582Z,45.80
2017-10-19T17:13:11.052Z,43.60
2017-10-19T17:15:38.473Z,58.37
2017-10-19T17:18:06.659Z,44.23
2017-10-19T17:20:34.071Z,44.13
2017-10-19T17:23:01.487Z,57.77
2017-10-19T17:25:28.916Z,58.67
2017-10-19T17:27:57.110Z,55.03
2017-10-19T17:30:24.525Z,48.73
2017-10-19T17:32:51.968Z,58.00
2017-10-19T17:35:19.396Z,60.60
2017-10-19T17:37:47.812Z,51.67
2017-10-19T17:40:15.334Z,52.73
2017-10-19T17:42:42.756Z,62.60
2017-10-19T17:45:10.927Z,68.10
2017-10-19T17:47:39.148Z,62.73
2017-10-19T17:50:06.579Z,57.57
2017-10-19T17:52:34.009Z,64.47
2017-10-19T17:55:02.287Z,63.63
2017-10-19T17:57:31.418Z,69.40
2017-10-19T17:59:58.835Z,60.57
2017-10-19T18:02:27.022Z,57.43
2017-10-19T18:04:54.499Z,68.47
2017-10-19T18:07:21.987Z,71.90
2017-10-19T18:09:49.399Z,72.73
2017-10-19T18:12:16.823Z,67.47
2017-10-19T18:14:44.224Z,83.90
2017-10-19T18:17:11.647Z,75.33
2017-10-19T18:19:39.856Z,84.13
2017-10-19T18:22:07.279Z,77.73
2017-10-19T18:24:35.495Z,74.20
2017-10-19T18:27:02.906Z,76.93
2017-10-19T18:29:32.759Z,75.33
2017-10-19T18:32:00.179Z,76.33
2017-10-19T18:34:28.556Z,83.70
2017-10-19T18:36:55.985Z,77.80
2017-10-19T18:39:23.404Z,80.93
2017-10-19T18:41:50.859Z,80.40
2017-10-19T18:44:18.300Z,78.83
2017-10-19T18:46:46.470Z,75.80
2017-10-19T18:49:13.917Z,76.10
2017-10-19T18:51:41.307Z,75.93
2017-10-19T18:54:08.729Z,79.17
2017-10-19T18:56:36.902Z,85.97
2017-10-19T18:59:04.318Z,83.67
2017-10-19T19:01:38.598Z,82.00
2017-10-19T19:04:06.103Z,83.73
2017-10-19T19:06:33.593Z,78.33
2017-10-19T19:09:02.713Z,77.47
2017-10-19T19:11:30.152Z,74.27
2017-10-19T19:13:58.354Z,76.53
2017-10-19T19:16:25.797Z,86.53
2017-10-19T19:18:53.273Z,78.43
2017-10-19T19:21:20.745Z,83.50
2017-10-19T19:23:48.275Z,77.30
2017-10-19T19:26:15.702Z,89.83
2017-10-19T19:28:43.147Z,81.67
2017-10-19T19:31:11.374Z,80.10
2017-10-19T19:33:38.804Z,89.03
2017-10-19T19:36:06.242Z,87.53
2017-10-19T19:38:34.419Z,79.63
2017-10-19T19:41:01.832Z,77.53
2017-10-19T19:43:29.247Z,81.57
2017-10-19T19:45:56.662Z,83.73
2017-10-19T19:48:24.075Z,88.50
2017-10-19T19:50:51.491Z,75.33
2017-10-19T19:53:19.739Z,74.67
2017-10-19T19:55:47.183Z,67.60
2017-10-19T19:58:14.634Z,68.07
2017-10-19T20:00:42.058Z,70.73
2017-10-19T20:03:09.484Z,72.50
2017-10-19T20:05:37.659Z,57.97
2017-10-19T20:08:05.842Z,63.33
2017-10-19T20:10:34.439Z,57.40
2017-10-19T20:13:01.890Z,52.93
2017-10-19T20:15:30.059Z,57.50
2017-10-19T20:17:57.483Z,54.23
2017-10-19T20:20:24.906Z,53.80
2017-10-19T20:22:52.382Z,55.87
2017-10-19T20:25:19.792Z,67.67
2017-10-19T20:27:47.208Z,60.50
2017-10-19T20:30:14.668Z,59.58
2017-10-19T20:32:42.851Z,57.47
2017-10-19T20:35:11.034Z,69.33
2017-10-19T20:37:38.446Z,61.23
2017-10-19T20:40:05.868Z,59.10
2017-10-19T20:42:34.207Z,48.33
2017-10-19T20:45:02.512Z,52.33
2017-10-19T20:47:29.933Z,56.30
2017-10-19T20:49:57.369Z,49.83
2017-10-19T20:52:24.768Z,46.00
2017-10-19T20:54:53.017Z,41.33
2017-10-19T20:57:21.940Z,36.60
2017-10-19T20:59:49.357Z,37.83
2017-10-19T21:02:16.797Z,38.90
2017-10-19T21:04:44.255Z,36.40
2017-10-19T21:07:11.656Z,35.83
2017-10-19T21:09:39.907Z,40.23
2017-10-19T21:12:07.366Z,33.53
2017-10-19T21:14:34.797Z,37.13
2017-10-19T21:17:02.775Z,33.67
2017-10-19T21:19:30.191Z,36.67
2017-10-19T21:21:57.681Z,33.30
2017-10-19T21:24:25.124Z,36.03
2017-10-19T21:26:52.531Z,36.13
2017-10-19T21:29:20.711Z,38.37
2017-10-19T21:31:48.900Z,34.80
2017-10-19T21:34:16.400Z,33.80
2017-10-19T21:36:43.842Z,33.83
2017-10-19T21:39:11.252Z,33.50
2017-10-19T21:41:39.434Z,29.87
2017-10-19T21:44:07.602Z,32.10
2017-10-19T21:46:35.962Z,30.65
2017-10-19T21:49:03.395Z,29.17
2017-10-19T21:51:31.602Z,26.63
2017-10-19T21:53:59.787Z,28.03
2017-10-19T21:56:27.971Z,39.43
2017-10-19T21:58:56.151Z,27.70
2017-10-19T22:01:23.558Z,32.83
2017-10-19T22:03:50.990Z,29.40
2017-10-19T22:06:18.411Z,30.27
2017-10-19T22:08:45.837Z,28.33
2017-10-19T22:11:13.344Z,30.30
2017-10-19T22:13:40.758Z,34.47
2017-10-19T22:16:08.944Z,30.00
2017-10-19T22:18:36.365Z,26.33
2017-10-19T22:21:03.779Z,29.03
2017-10-19T22:23:31.203Z,32.23
2017-10-19T22:25:59.390Z,29.17
2017-10-19T22:28:26.805Z,34.77
2017-10-19T22:30:54.219Z,31.80
2017-10-19T22:33:21.635Z,33.17
2017-10-19T22:35:49.826Z,30.37
2017-10-19T22:38:17.248Z,29.57
2017-10-19T22:40:44.660Z,34.53
2017-10-19T22:43:12.082Z,28.67
2017-10-19T22:45:40.263Z,28.27
2017-10-19T22:48:08.447Z,30.73
2017-10-19T22:50:36.818Z,31.75
2017-10-19T22:53:05.637Z,28.70
2017-10-19T22:55:33.047Z,34.77
2017-10-19T22:58:01.235Z,28.90
2017-10-19T23:00:28.671Z,27.33
2017-10-19T23:02:56.092Z,30.33
2017-10-19T23:05:23.513Z,29.83
2017-10-19T23:07:50.935Z,32.47
2017-10-19T23:10:18.354Z,34.03
2017-10-19T23:12:45.774Z,33.80
2017-10-19T23:15:13.192Z,32.30
2017-10-19T23:17:40.611Z,26.00
2017-10-19T23:20:08.031Z,28.73
2017-10-19T23:22:37.161Z,29.30
2017-10-19T23:25:04.581Z,35.07
2017-10-19T23:27:32.775Z,28.40
2017-10-19T23:30:00.202Z,26.07
2017-10-19T23:32:28.389Z,34.00
2017-10-19T23:34:56.580Z,29.30
2017-10-19T23:37:24.003Z,25.47
2017-10-19T23:39:51.419Z,32.77
2017-10-19T23:42:18.841Z,33.10
2017-10-19T23:44:46.335Z,29.90
2017-10-19T23:47:13.750Z,27.03
2017-10-19T23:49:41.228Z,28.13
2017-10-19T23:52:08.659Z,30.30
2017-10-19T23:54:37.769Z,29.30
2017-10-19T23:57:05.193Z,32.17
2017-10-19T23:59:32.611Z,29.00
